EBOS/OST METAR and TAF weather

Enter ICAO airport designator
Station Type Date Time Source
EBOS METAR 2019/12/11 15:20 UTC NOAA

EBOS 111520Z 19006KT 9999 FEW025 SCT040 07/05 Q1004 TEMPO 4000 SHRA


Station Type Date Time Source
EBOS Decoded METAR 2019/12/11 15:20 UTC NOAA

Oostende Airport , Belgium (EBOS) 51-12N 002-52E 5M
Dec 11, 2019 - 10:20 AM EST / 2019.12.11 1520 UTC
Wind: from the S (190 degrees) at 7 MPH (6 KT):0
Visibility: greater than 7 mile(s):0
Sky conditions: partly cloudy
Temperature: 44 F (7 C)
Dew Point: 41 F (5 C)
Relative Humidity: 87%
Pressure (altimeter): 29.65 in. Hg (1004 hPa)
ob: EBOS 111520Z 19006KT 9999 FEW025 SCT040 07/05 Q1004 TEMPO 4000 SHRA
cycle: 15

Station Type Date Time Source
EBOS TAF 2019/12/11 12:27 UTC NOAA

TAF EBOS 111120Z 1112/1218 20007KT 9999 SCT025 PROB40
TEMPO 1114/1121 23015G25KT 3500 RA SHRA BKN010 SCT015CB PROB40
TEMPO 1207/1212 BKN008
TEMPO 1212/1218 16018G28KT 3500 RADZ BKN008

Example: see airport list